• Join FlightAware (Why Join?)
  • Login
  • US Flag 
09:20PM EST


 

Airport Tracker/Info


-or-


 

Live Flight TrackerFlight Track Log ✈ OPT438 ✈ 20-Feb-2014 ✈ KRFD - KSDF

Flight Track Log - Related Links

Times and Time Zones

All times are in EST time to prevent confusion due to time zone crossing. See the OPT438 flight status page for this flight to view local times or setup timezone preferences in your user account.

Time Position Orientation Groundspeed Altitude Reporting Facility
EST Latitude Longitude Course Direction KTS MPH feet Rate Location/Type
12:16PM 42.1797 -89.0492 199° South 206 237 33,000  Level Chicago Center
12:17PM 42.1283 -89.0733 199° South 211 243 5,900 -11,880 Descending Chicago Center
12:18PM 42.0600 -89.1236 209° Southwest 229 264 8,700 3,300 Climbing Chicago Center
12:19PM 42.0008 -89.1708 211° Southwest 249 287 12,800 3,660 Climbing Chicago Center
12:20PM 41.9497 -89.2125 211° Southwest 215 247 16,300 2,940 Climbing Chicago Center
12:21PM 41.8936 -89.2581 211° Southwest 233 268 18,900 2,340 Climbing Chicago Center
12:22PM 41.8350 -89.3050 211° Southwest 243 280 21,200 2,100 Climbing Chicago Center
12:23PM 41.7744 -89.3553 212° Southwest 254 292 23,300 2,160 Climbing Chicago Center
12:24PM 41.7094 -89.3917 203° Southwest 257 296 25,700 2,040 Climbing Chicago Center
12:25PM 41.6375 -89.3633 164° South 272 313 27,500 1,740 Climbing Chicago Center
12:26PM 41.5719 -89.2767 135° Southeast 321 369 29,300 1,800 Climbing Chicago Center
12:27PM 41.4936 -89.1683 134° Southeast 336 387 31,300 1,620 Climbing Chicago Center
12:28PM 41.4269 -89.0767 134° Southeast 342 394 32,700 780 Climbing Chicago Center
12:29PM 41.3556 -88.9783 134° Southeast 363 418 33,000 120 Climbing Chicago Center
12:30PM 41.2761 -88.8708 135° Southeast 399 459 33,000 360 Level Chicago Center
12:31PM 41.1989 -88.7639 134° Southeast 401 461 33,800 960 Climbing Chicago Center
12:32PM 41.1219 -88.6589 134° Southeast 396 456 35,000 540 Climbing Chicago Center
12:33PM 41.0439 -88.5531 134° Southeast 398 458 35,000  Level Chicago Center
12:34PM 40.9647 -88.4464 134° Southeast 405 466 35,000  Level Chicago Center
12:35PM 40.8856 -88.3403 135° Southeast 405 466 35,000  Level Chicago Center
12:36PM 40.7903 -88.2139 135° Southeast 403 464 35,000 -120 Level Chicago Center
12:37PM 40.7114 -88.1086 135° Southeast 404 465 34,800 -300 Descending Chicago Center
12:38PM 40.6164 -88.0439 153° Southeast 393 452 34,500 -180 Descending Chicago Center
12:39PM 40.5300 -87.9697 147° Southeast 394 453 34,500 -60 Level Chicago Center
12:40PM 40.4417 -87.8919 146° Southeast 383 441 34,400 -780 Descending Chicago Center
12:41PM 40.3536 -87.8308 152° Southeast 361 415 33,000 -1,500 Descending Chicago Center
12:42PM 40.2675 -87.7744 153° Southeast 355 409 31,400 -1,800 Descending Chicago Center
12:44PM 40.1717 -87.7083 152° Southeast 331 381 29,400 -1,740 Descending Chicago Center
12:45PM 40.0933 -87.6556 153° Southeast 322 371 27,800 -1,200 Descending Indianapolis Center
12:46PM 40.0175 -87.6053 153° Southeast 312 359 27,000 -420 Descending Chicago Center
12:47PM 39.9422 -87.5536 152° Southeast 307 353 27,000 -120 Level Chicago Center
12:48PM 39.8664 -87.5031 153° Southeast 308 354 26,800 -480 Descending Chicago Center
12:49PM 39.7917 -87.4519 152° Southeast 306 352 26,100 -720 Descending Chicago Center
12:50PM 39.7006 -87.3900 152° Southeast 307 353 25,300 -720 Descending Indianapolis Center
12:51PM 39.6236 -87.3397 153° Southeast 307 353 24,600 -780 Descending Indianapolis Center
12:52PM 39.5486 -87.2889 152° Southeast 307 353 23,800 -780 Descending Indianapolis Center
12:53PM 39.4719 -87.2422 155° Southeast 308 354 23,100 -420 Descending Indianapolis Center
12:54PM 39.3942 -87.2083 161° South 301 346 23,000 -60 Descending Indianapolis Center
12:55PM 39.2997 -87.1672 161° South 301 346 23,000  Level Indianapolis Center
12:56PM 39.2206 -87.1331 162° South 301 346 23,000  Level Indianapolis Center
12:57PM 39.1408 -87.0992 162° South 301 346 23,000  Level Indianapolis Center
12:58PM 39.0633 -87.0664 162° South 301 346 23,000  Level Indianapolis Center
12:59PM 38.9831 -87.0322 162° South 301 346 23,000  Level Indianapolis Center
01:00PM 38.9022 -86.9978 162° South 301 346 23,000  Level Indianapolis Center
01:01PM 38.8056 -86.9558 161° South 301 346 23,000  Level Indianapolis Center
01:02PM 38.7247 -86.9217 162° South 302 348 23,000  Level Indianapolis Center
01:03PM 38.6425 -86.8875 162° South 303 349 23,000  Level Indianapolis Center
01:04PM 38.5622 -86.8522 161° South 303 349 23,000 -840 Level Indianapolis Center
01:05PM 38.4831 -86.8189 162° South 300 345 21,300 -1,860 Descending Indianapolis Center
01:06PM 38.4097 -86.7878 162° South 282 325 19,300 -2,040 Descending Indianapolis Center
01:07PM 38.3411 -86.7586 162° South 262 302 17,200 -1,800 Descending Indianapolis Center
01:08PM 38.2775 -86.7319 162° South 244 281 15,600 -1,800 Descending Indianapolis Center
01:09PM 38.2469 -86.6431 114° Southeast 288 331 13,600 -2,040 Descending Indianapolis Center
01:10PM 38.2331 -86.5344 99° East 306 352 11,400 -1,920 Descending Indianapolis Center
01:11PM 38.2533 -86.4047 79° East 310 357 9,700 -1,380 Descending Indianapolis Center
01:12PM 38.2747 -86.3036 75° East 292 336 8,600 -1,020 Descending Indianapolis Center
01:13PM 38.2933 -86.2111 76° East 285 328 7,700 -900 Descending Indianapolis Center
01:14PM 38.3128 -86.1133 76° East 284 327 6,800 -900 Descending Indianapolis Center
01:15PM 38.3333 -86.0178 75° East 283 326 5,900 -840 Descending Indianapolis Center
01:17PM 38.3525 -85.9256 75° East 275 316 5,100 -840 Descending Indianapolis Center
01:18PM 38.3678 -85.8375 77° East 264 304 4,200 -1,080 Descending Indianapolis Center
01:19PM 38.3253 -85.7761 131° Southeast 212 244 3,000 -840 Descending Indianapolis Center
01:20PM 38.2881 -85.7628 164° South 170 196 2,600 -420 Descending Indianapolis Center
01:21PM 38.2553 -85.7578 173° South 158 182 2,200 -660 Descending Indianapolis Center
01:23PM 38.2000 -85.7333 161° South 102 117 700 -780 Descending Louisville TRACON
01:25PM 38.1741 -85.7365 127° Southeast  Level Estimated